EW0908 Khalkis GR current weather conditions

sailwx.info

Air temperature 18.3° C
Dewpoint 18.3° C

Last reported at 2020-Aug-09 07:58 UTC.
Time now 2020-Aug-09 23:26 UTC

Location: N 38°28' E 023°36'.
View on Google Maps.

See reports from other nearby stations

  
Tides and Currents Weather Stations Pressure Air Temp Water Temp Dewpoint Dewpoint Depression Visibility Wind Speed Wind Dir Waves Ship Positions
date/time (UTC)wind fromknots sea level pressurealtimeterstation pressurevisibilityair tempwater tempwave heightnotes
2020-Aug-09 07:58 18.3
2020-Aug-09 04:48 306 18.3
2020-Aug-09 04:43 306 18.3
2020-Aug-09 04:38 306 18.3
2020-Aug-09 04:33 306 18.3
2020-Aug-09 04:28 306 18.3
2020-Aug-09 04:23 306 18.3
2020-Aug-09 04:18 306 18.3
2020-Aug-09 04:13 306 18.3
2020-Aug-09 04:08 306 18.3
2020-Aug-09 04:03 306 18.3
2020-Aug-09 03:58 306 18.3
2020-Aug-09 03:53 306 18.3
2020-Aug-09 03:48 306 18.3
2020-Aug-09 03:43 306 18.3
2020-Aug-09 03:38 306 18.3
2020-Aug-09 03:33 306 18.3
2020-Aug-09 03:28 306 18.3
2020-Aug-09 03:23 306 18.3
2020-Aug-09 03:18 306 18.3
2020-Aug-09 03:13 306 18.3
2020-Aug-09 03:08 306 18.3
2020-Aug-09 03:03 306 18.3
2020-Aug-09 02:58 306 18.3
2020-Aug-09 02:53 306 18.3
2020-Aug-09 02:48 306 18.3
2020-Aug-09 02:43 306 18.3
2020-Aug-09 02:38 306 18.3
2020-Aug-09 02:33 306 18.3
2020-Aug-09 02:28 306 18.3
2020-Aug-09 02:23 306 18.3
2020-Aug-09 02:18 306 11 gusting 13 18.3
2020-Aug-09 02:13 306 11 gusting 13 18.3
2020-Aug-09 02:08 308 6 gusting 13 18.3
2020-Aug-09 02:03 309 2 gusting 11 18.3
2020-Aug-09 01:58 329 8 gusting 18 18.3
2020-Aug-09 01:53 18.9
2020-Aug-09 01:48 334 13 gusting 26 18.9
2020-Aug-09 01:43 336 11 gusting 24 18.9
2020-Aug-09 01:38 334 5 gusting 13 18.9
2020-Aug-09 01:33 289 9 gusting 19 18.9
2020-Aug-09 01:28 347 4 gusting 21 19.4
2020-Aug-09 01:23 329 13 gusting 24 19.4
2020-Aug-09 01:18 346 10 gusting 26 19.4
2020-Aug-09 01:13 329 20 gusting 26 19.4
2020-Aug-09 01:08 308 15 gusting 27 18.9
2020-Aug-09 01:03 353 13 gusting 34 18.9
2020-Aug-09 00:58 347 17 gusting 26 18.9
2020-Aug-09 00:53 329 13 gusting 27 18.9
2020-Aug-09 00:48 325 19 gusting 33 18.9
2020-Aug-09 00:43 334 15 gusting 26 18.9
2020-Aug-09 00:38 293 13 gusting 24 18.9
2020-Aug-09 00:33 348 17 gusting 24 19.4
2020-Aug-09 00:28 346 13 gusting 24 19.4
2020-Aug-09 00:23 299 13 gusting 26 19.4
2020-Aug-09 00:18 327 20 gusting 31 19.4
2020-Aug-09 00:13 331 19 gusting 31 19.4
2020-Aug-09 00:08 321 12 gusting 24 19.4
2020-Aug-09 00:03 327 14 gusting 24 19.4
2020-Aug-08 23:58 319 14 gusting 24 19.4
2020-Aug-08 23:53 320 17 gusting 24 19.4
2020-Aug-08 23:48 314 20 gusting 31 19.4
2020-Aug-08 23:43 304 10 gusting 19 19.4
2020-Aug-08 23:38 309 8 gusting 18 20.0
2020-Aug-08 23:33 314 7 gusting 14 20.0
2020-Aug-08 23:28 283 8 gusting 19 20.0
2020-Aug-08 23:23 289 7 gusting 24 19.4
2020-Aug-08 23:18 293 12 gusting 19 20.0
2020-Aug-08 23:13 286 13 gusting 21 20.0
2020-Aug-08 23:08 336 13 gusting 19 20.0
2020-Aug-08 23:03 307 9 gusting 14 20.0
2020-Aug-08 22:58 316 11 gusting 18 20.0
2020-Aug-08 22:53 271 6 gusting 18 20.6
2020-Aug-08 22:48 038 7 gusting 14 20.6
2020-Aug-08 22:43 325 2 gusting 11 20.6
2020-Aug-08 22:38 284 8 gusting 18 21.1
2020-Aug-08 22:33 318 11 gusting 18 21.1
2020-Aug-08 22:28 322 12 gusting 19 21.1
2020-Aug-08 22:23 294 11 gusting 21 21.7
2020-Aug-08 22:18 301 8 gusting 18 21.7
2020-Aug-08 22:13 308 11 gusting 24 21.7
2020-Aug-08 22:08 311 10 gusting 18 21.7
2020-Aug-08 22:03 21.7
2020-Aug-08 21:58 350 9 gusting 18 21.7
2020-Aug-08 21:53 003 14 gusting 24 21.7
2020-Aug-08 21:48 012 13 gusting 19 22.2
2020-Aug-08 21:43 319 1 gusting 8 22.2
2020-Aug-08 21:38 307 5 gusting 18 22.2
2020-Aug-08 21:33 338 8 gusting 18 22.2
2020-Aug-08 21:28 294 11 gusting 21 22.8
2020-Aug-08 21:23 300 14 gusting 21 22.8
2020-Aug-08 21:18 283 13 gusting 26 22.8
2020-Aug-08 21:13 292 14 gusting 26 22.8
2020-Aug-08 21:10 332 15 gusting 26 22.8
2020-Aug-08 21:03 310 13 gusting 24 22.8
2020-Aug-08 20:58 006 15 gusting 26 22.8
2020-Aug-08 20:53 289 15 gusting 27 23.3
2020-Aug-08 20:48 339 15 gusting 27 23.3
2020-Aug-08 20:43 334 14 gusting 31 23.3
2020-Aug-08 20:38 002 24 gusting 33 23.9
2020-Aug-08 20:33 310 19 gusting 31 24.4
2020-Aug-08 20:28 312 15 gusting 33 24.4
2020-Aug-08 20:23 342 21 gusting 33 25.0
2020-Aug-08 20:18 351 20 gusting 33 25.0
2020-Aug-08 20:13 350 18 gusting 31 25.6
2020-Aug-08 20:08 323 19 gusting 31 25.6
2020-Aug-08 20:03 346 21 gusting 27 25.6
2020-Aug-08 19:58 324 14 gusting 26 25.6
2020-Aug-08 19:53 325 16 gusting 27 26.1
2020-Aug-08 19:48 342 15 gusting 26 26.1
2020-Aug-08 19:43 331 12 gusting 24 26.1
2020-Aug-08 19:38 322 11 gusting 19 26.1
2020-Aug-08 19:33 339 9 gusting 19 26.7
2020-Aug-08 19:28 338 12 gusting 19 26.7
2020-Aug-08 19:23 340 12 gusting 21 26.7
2020-Aug-08 19:18 325 8 gusting 14 26.7
2020-Aug-08 19:13 331 9 gusting 14 26.7
2020-Aug-08 19:08 311 6 gusting 13 26.7
2020-Aug-08 19:03 299 10 gusting 18 26.7
2020-Aug-08 18:58 296 11 gusting 18 26.7
2020-Aug-08 18:53 295 9 gusting 18 26.7
2020-Aug-08 18:48 303 7 gusting 13 26.7
2020-Aug-08 18:43 289 8 gusting 18 26.7
2020-Aug-08 18:38 308 7 gusting 13 26.7
2020-Aug-08 18:33 309 8 gusting 14 26.7
2020-Aug-08 18:28 002 8 gusting 14 26.7
2020-Aug-08 18:23 324 6 gusting 18 27.2
2020-Aug-08 18:18 322 9 gusting 14 27.2
2020-Aug-08 18:13 357 8 gusting 21 27.2
2020-Aug-08 18:08 321 10 gusting 21 27.8
2020-Aug-08 18:03 347 12 gusting 19 27.8
2020-Aug-08 17:58 274 1 gusting 6 27.8
2020-Aug-08 17:53 075 1 gusting 8 27.8
2020-Aug-08 17:48 303 1 gusting 8 27.8
2020-Aug-08 17:43 032 1 gusting 8 27.8
2020-Aug-08 17:38 319 3 gusting 8 27.8
2020-Aug-08 17:33 011 3 gusting 11 27.8
2020-Aug-08 17:28 012 5 gusting 11 27.8
2020-Aug-08 17:23 344 6 gusting 11 27.8
2020-Aug-08 17:18 341 5 gusting 11 28.3
2020-Aug-08 17:13 039 1 gusting 6 28.3
2020-Aug-08 17:08 054 1 gusting 6 28.3
2020-Aug-08 17:03 249 0 gusting 8 28.3
2020-Aug-08 16:58 329 6 gusting 13 28.3
2020-Aug-08 16:53 303 7 gusting 13 28.3
2020-Aug-08 16:48 342 5 gusting 11 28.3
2020-Aug-08 16:43 339 7 gusting 13 28.3
2020-Aug-08 16:38 331 8 gusting 11 28.9
2020-Aug-08 16:33 007 4 gusting 11 28.9
2020-Aug-08 16:28 337 7 gusting 11 28.9
2020-Aug-08 16:23 328 8 gusting 13 28.9
2020-Aug-08 16:18 316 8 gusting 13 29.4
2020-Aug-08 16:13 352 8 gusting 14 29.4
2020-Aug-08 16:08 354 8 gusting 13 29.4
2020-Aug-08 16:03 332 8 gusting 13 28.9
2020-Aug-08 15:58 341 7 gusting 14 28.9
2020-Aug-08 15:53 306 6 gusting 14 28.9
2020-Aug-08 15:48 312 7 gusting 11 28.9
2020-Aug-08 15:43 349 4 gusting 8 28.9
2020-Aug-08 15:38 009 5 gusting 8 28.9
2020-Aug-08 15:33 330 6 gusting 11 28.9
2020-Aug-08 15:28 312 5 gusting 13 28.9
2020-Aug-08 15:23 323 7 gusting 11 29.4
2020-Aug-08 15:18 320 4 gusting 8 29.4
2020-Aug-08 15:13 010 2 gusting 6 29.4
2020-Aug-08 15:08 024 2 gusting 8 30.0
2020-Aug-08 15:03 333 2 gusting 6 30.0
2020-Aug-08 14:58 358 2 gusting 6 30.0
2020-Aug-08 14:53 085 4 gusting 11 30.0
2020-Aug-08 14:48 253 3 gusting 8 30.0
2020-Aug-08 14:43 089 3 gusting 8 29.4
2020-Aug-08 14:38 354 2 gusting 6 29.4
2020-Aug-08 14:33 026 5 gusting 11 28.9
2020-Aug-08 14:28 053 4 gusting 13 28.9
2020-Aug-08 14:23 321 3 gusting 14 29.4
2020-Aug-08 14:18 280 4 gusting 8 29.4
2020-Aug-08 14:13 214 4 gusting 8 29.4
2020-Aug-08 14:08 106 4 gusting 14 30.0
2020-Aug-08 14:03 108 3 gusting 8 30.0
2020-Aug-08 13:58 044 2 gusting 11 30.0
2020-Aug-08 13:53 120 5 gusting 13 30.0
2020-Aug-08 13:48 102 4 gusting 11 30.0
2020-Aug-08 13:43 044 4 gusting 18 30.0
2020-Aug-08 13:38 220 5 gusting 13 30.0
2020-Aug-08 13:33 141 4 gusting 11 29.4
2020-Aug-08 13:28 331 5 gusting 8 29.4
2020-Aug-08 13:23 075 6 gusting 14 28.9
2020-Aug-08 13:18 318 7 gusting 14 28.9
2020-Aug-08 13:13 314 10 gusting 18 28.9
2020-Aug-08 13:08 308 10 gusting 18 28.9
2020-Aug-08 13:03 345 8 gusting 18 28.9
2020-Aug-08 12:58 003 12 gusting 19 28.9
2020-Aug-08 12:53 008 8 gusting 14 28.9
2020-Aug-08 12:48 332 11 gusting 18 28.9
2020-Aug-08 12:43 305 8 gusting 14 28.9
2020-Aug-08 12:38 331 8 gusting 18 28.9
2020-Aug-08 12:33 323 9 gusting 14 28.9
2020-Aug-08 12:28 316 7 gusting 18 28.9
2020-Aug-08 12:23 311 7 gusting 14 28.9
2020-Aug-08 12:18 321 10 gusting 14 28.9
2020-Aug-08 12:13 333 10 gusting 14 28.9
2020-Aug-08 12:08 038 6 gusting 14 28.9
2020-Aug-08 12:03 359 9 gusting 18 28.9
2020-Aug-08 11:58 342 13 gusting 18 28.9
2020-Aug-08 11:53 349 12 gusting 19 28.9
2020-Aug-08 11:48 354 13 gusting 19 28.9
2020-Aug-08 11:43 337 12 gusting 19 28.9
2020-Aug-08 11:38 358 9 gusting 18 28.9
2020-Aug-08 11:33 354 12 gusting 19 28.3
2020-Aug-08 11:28 320 9 gusting 14 28.3
2020-Aug-08 11:23 320 10 gusting 18 28.3
2020-Aug-08 11:18 323 13 gusting 21 28.3
2020-Aug-08 11:13 328 13 gusting 18 28.3
2020-Aug-08 11:08 334 10 gusting 19 28.3
2020-Aug-08 11:03 352 12 gusting 18 28.3
2020-Aug-08 10:58 343 10 gusting 18 28.3
2020-Aug-08 10:53 342 8 gusting 14 28.3
2020-Aug-08 10:48 308 10 gusting 19 27.8
2020-Aug-08 10:43 344 12 gusting 19 27.8
2020-Aug-08 10:38 348 13 gusting 19 27.8
2020-Aug-08 10:33 344 11 gusting 21 27.8
2020-Aug-08 10:28 003 10 gusting 19 27.8
2020-Aug-08 10:23 341 14 gusting 19 27.8
2020-Aug-08 10:18 333 13 gusting 19 27.8
2020-Aug-08 10:13 341 14 gusting 21 27.8
2020-Aug-08 10:08 359 13 gusting 19 27.8
2020-Aug-08 10:03 356 12 gusting 18 27.8
2020-Aug-08 09:58 346 11 gusting 18 27.8
2020-Aug-08 09:53 350 11 gusting 18 27.8
2020-Aug-08 09:48 007 11 gusting 18 27.8
2020-Aug-08 09:43 320 11 gusting 18 27.8
2020-Aug-08 09:38 322 7 gusting 14 27.8
2020-Aug-08 09:33 357 11 gusting 14 27.8
2020-Aug-08 09:28 006 11 gusting 14 27.8
2020-Aug-08 09:23 284 8 gusting 14 27.8
2020-Aug-08 09:18 355 8 gusting 14 27.8
2020-Aug-08 09:13 346 9 gusting 14 27.8
2020-Aug-08 09:08 333 7 gusting 11 27.8
2020-Aug-08 09:03 311 7 gusting 13 27.8
2020-Aug-08 08:58 335 5 gusting 18 27.8
2020-Aug-08 08:53 316 7 gusting 18 27.8
2020-Aug-08 08:48 315 6 gusting 14 27.8
2020-Aug-08 08:43 272 7 gusting 14 27.8
2020-Aug-08 08:38 318 7 gusting 13 27.8
2020-Aug-08 08:33 294 8 gusting 14 27.2
2020-Aug-08 08:28 345 7 gusting 14 27.2
2020-Aug-08 08:23 311 8 gusting 14 27.2
2020-Aug-08 08:18 281 6 gusting 13 27.2
2020-Aug-08 08:13 282 6 gusting 13 27.2
2020-Aug-08 08:08 343 9 gusting 14 27.2
2020-Aug-08 08:03 325 6 gusting 11 27.2
2020-Aug-08 07:58 282 6 gusting 13 26.7
2020-Aug-08 07:53 307 7 gusting 13 26.7
2020-Aug-08 07:48 301 10 gusting 14 26.7
2020-Aug-08 07:43 308 8 gusting 14 26.7
2020-Aug-08 07:38 325 8 gusting 14 26.7
2020-Aug-08 07:33 288 8 gusting 18 26.1
2020-Aug-08 07:28 322 8 gusting 14 26.1
2020-Aug-08 07:23 306 7 gusting 14 26.1
2020-Aug-08 07:18 330 7 gusting 14 26.1
2020-Aug-08 07:13 302 11 gusting 21 26.1
2020-Aug-08 07:08 330 9 gusting 19 26.1
2020-Aug-08 07:03 294 10 gusting 14 26.1
2020-Aug-08 06:58 295 10 gusting 18 26.1
2020-Aug-08 06:53 303 8 gusting 14 25.6
2020-Aug-08 06:48 341 9 gusting 18 25.6
2020-Aug-08 06:43 333 8 gusting 18 25.6
2020-Aug-08 06:38 347 11 gusting 18 25.6
2020-Aug-08 06:33 322 7 gusting 18 25.6
2020-Aug-08 06:28 354 9 gusting 18 25.6
2020-Aug-08 06:23 355 11 gusting 18 25.6
2020-Aug-08 06:18 316 9 gusting 14 25.6
2020-Aug-08 06:13 314 9 gusting 19 25.6
2020-Aug-08 06:08 336 10 gusting 14 25.6
2020-Aug-08 06:03 356 5 gusting 11 25.6
2020-Aug-08 05:58 320 6 gusting 18 25.6
2020-Aug-08 05:53 001 10 gusting 18 25.6
2020-Aug-08 05:48 002 8 gusting 13 25.6
2020-Aug-08 05:43 338 6 gusting 13 25.6
2020-Aug-08 05:38 353 7 gusting 14 25.6
2020-Aug-08 05:33 326 6 gusting 13 25.0
2020-Aug-08 05:28 345 7 gusting 13 25.0
2020-Aug-08 05:23 342 6 gusting 11 25.0
2020-Aug-08 05:18 330 6 gusting 13 25.0
2020-Aug-08 05:13 323 6 gusting 11 25.0
2020-Aug-08 05:08 307 4 gusting 13 25.0
2020-Aug-08 05:03 337 5 gusting 8 25.0
2020-Aug-08 04:58 290 5 gusting 8 25.0
2020-Aug-08 04:53 338 5 gusting 8 24.4
2020-Aug-08 04:48 327 3 gusting 8 24.4
2020-Aug-08 04:43 314 5 gusting 8 24.4
2020-Aug-08 04:38 331 5 gusting 11 24.4
2020-Aug-08 04:33 349 4 gusting 8 24.4
2020-Aug-08 04:28 330 4 gusting 8 24.4
2020-Aug-08 04:23 305 4 gusting 11 24.4
2020-Aug-08 04:18 297 6 gusting 8 24.4
2020-Aug-08 04:13 302 5 gusting 11 24.4
2020-Aug-08 04:08 294 6 gusting 11 24.4
2020-Aug-08 04:03 293 5 gusting 11 24.4
2020-Aug-08 03:58 309 5 gusting 13 24.4
2020-Aug-08 03:53 307 5 gusting 11 24.4
2020-Aug-08 03:48 293 5 gusting 11 24.4
2020-Aug-08 03:43 320 6 gusting 13 24.4
2020-Aug-08 03:38 329 6 gusting 13 24.4
2020-Aug-08 03:33 329 6 gusting 13 24.4
2020-Aug-08 03:28 323 6 gusting 11 24.4
2020-Aug-08 03:23 344 6 gusting 13 24.4
2020-Aug-08 03:18 296 7 gusting 11 24.4
2020-Aug-08 03:13 340 7 gusting 14 24.4
2020-Aug-08 03:08 347 6 gusting 11 24.4
2020-Aug-08 03:03 329 5 gusting 11 24.4
2020-Aug-08 02:58 300 6 gusting 13 24.4
2020-Aug-08 02:53 307 6 gusting 11 24.4
2020-Aug-08 02:48 350 7 gusting 11 24.4
2020-Aug-08 02:43 297 7 gusting 11 24.4
2020-Aug-08 02:38 286 7 gusting 13 24.4
2020-Aug-08 02:33 313 5 gusting 8 24.4
2020-Aug-08 02:28 337 5 gusting 8 24.4
2020-Aug-08 02:23 279 6 gusting 11 24.4
2020-Aug-08 02:18 330 5 gusting 11 24.4
2020-Aug-08 02:13 307 6 gusting 11 24.4
2020-Aug-08 02:08 343 6 gusting 11 24.4
2020-Aug-08 02:03 317 6 gusting 13 24.4
2020-Aug-08 01:58 290 5 gusting 11 24.4
2020-Aug-08 01:53 309 6 gusting 11 24.4
2020-Aug-08 01:48 320 4 gusting 8 24.4
2020-Aug-08 01:43 299 4 gusting 8 24.4
2020-Aug-08 01:38 295 4 gusting 8 24.4
2020-Aug-08 01:33 295 5 gusting 11 24.4
2020-Aug-08 01:28 301 4 gusting 8 24.4
2020-Aug-08 01:23 280 5 gusting 8 24.4
2020-Aug-08 01:18 289 5 gusting 8 24.4
2020-Aug-08 01:13 324 4 gusting 8 24.4
2020-Aug-08 01:08 308 6 gusting 8 24.4
2020-Aug-08 01:03 316 5 gusting 6 24.4
2020-Aug-08 00:58 326 2 gusting 6 24.4
2020-Aug-08 00:53 323 2 gusting 6 24.4
2020-Aug-08 00:48 328 1 gusting 4 24.4
2020-Aug-08 00:43 311 24.4
2020-Aug-08 00:38 050 0 gusting 1 24.4
2020-Aug-08 00:33 326 24.4
2020-Aug-08 00:28 002 0 gusting 4 24.4
2020-Aug-08 00:23 205 0 gusting 4 24.4
2020-Aug-08 00:18 282 24.4
2020-Aug-08 00:13 335 2 gusting 6 25.0
2020-Aug-08 00:08 319 25.0
2020-Aug-08 00:03 280 0 gusting 6 25.0
2020-Aug-07 23:58 030 1 gusting 6 25.0
2020-Aug-07 23:53 010 4 gusting 6 25.0
2020-Aug-07 23:48 352 0 gusting 4 25.0
2020-Aug-07 23:43 354 1 gusting 4 25.0
2020-Aug-07 23:38 300 25.0
2020-Aug-07 23:33 309 0 gusting 6 25.0
2020-Aug-07 23:28 341 0 gusting 4 25.0
2020-Aug-07 23:23 328 25.0
2020-Aug-07 23:18 351 25.0
2020-Aug-07 23:13 294 25.0
2020-Aug-07 23:08 349 1 gusting 4 25.0
2020-Aug-07 23:03 336 2 gusting 4 25.0